LZPPLZSL

Guest
Details From LZPP - PIESTANY
To LZSL - SLIAC
Flight Number -
Tags generated
Created
Modified
Stats Distance 54 nm / 100 km
Max Altitude 2,200 ft / 671 m
Waypoints 3
Social Downloads 0
Likes 0
Share VATSIM

Download

Looking for another format? Having issues loading an existing format? Contact us
Advertisement - Login to hide

Notes

Basic altitude profile: - Ascent Rate: 1000ft/min - Ascent Speed: 170kts - Cruise Altitude: 12000ft - Cruise Speed: 200kts - Descent Rate: 1200ft/min - Descent Speed: 170kts Options: - Use NATs: yes - Use PACOTS: yes - Use low airways: yes - Use high airways: no

Route

LZPP RIMIT LZSL

ID Type Via Altitude Latitude Longitude Leg Dist Tot Dist Heading (true) Name
O LZPP APT - 0 ft / 0 m 48.62525˚ 17.82844˚ - 0 nm - PIESTANY
RIMIT FIX - 2,200 ft / 671 m 48.73667˚ 18.91722˚ 43 nm 43 nm 81° / 82° -
O LZSL APT - 0 ft / 0 m 48.63784˚ 19.13411˚ 10 nm 54 nm 125° / 125° SLIAC

Altitude Profile

Advertisement - Login to hide

LZPP

Details ICAO LZPP (PZY)
Name PIESTANY
Region Slovakia
Timezone Europe/Bratislava (UTC+1.0)
Stats Elevation 545 ft / 166 m (AMSL)
Location 48.625246° 17.828443°
Runways 1
Magnetic Variation 4.586° E

METAR

LZPP 171600Z 09004KT CAVOK M01/M02 Q1019

Decode

TAF

Not found

Departure Runways

ID Width Length Bearing (true) Bearing (mag) Surface Threshold Offset Overrun Length
01 98 ft / 30 m 6,560 ft / 1,999 m 13.71° 9.12° Asphalt 0 ft / 0 m 0 ft / 0 m
19 98 ft / 30 m 6,560 ft / 1,999 m 193.72° 189.13° Asphalt 0 ft / 0 m 0 ft / 0 m

LZSL

Details ICAO LZSL (SLD)
Name SLIAC
Region Slovakia
Timezone Europe/Bratislava (UTC+1.0)
Stats Elevation 1,043 ft / 318 m (AMSL)
Location 48.637839° 19.134108°
Runways 1
Magnetic Variation 4.875° E

METAR

LZSL 171600Z 00000KT CAVOK M05/M07 Q1018

Decode

TAF

Not found

Destination Runways

ID Width Length Bearing (true) Bearing (mag) Surface Threshold Offset Overrun Length
18 197 ft / 60 m 7,657 ft / 2,334 m 181.94° 177.07° Concrete 0 ft / 0 m 180 ft / 55 m
36 197 ft / 60 m 7,657 ft / 2,334 m 1.93° 357.06° Concrete 0 ft / 0 m 65 ft / 20 m

Approach Navaids

Runway Type Ident Frequency Range Bearing (true) Bearing (mag) Slope Elevation
36 Localiser FS 108.70 MHz 18 nm / 33 km 1.94° 357.07° - 1,042 ft / 318 m (AMSL)
36 Glidescope FS 108.70 MHz 10 nm / 19 km 1.94° 357.06° 3.50° 1,042 ft / 318 m (AMSL)
36 DME FS 108.70 MHz 18 nm / 33 km - - - 1,047 ft / 319 m (AMSL)

Popular Alternatives